createdAt,value
2022-09-30T00:04:07.006Z,99306.38
2022-09-30T00:09:13.006Z,99306.66
2022-09-30T00:14:18.857Z,99306.25
2022-09-30T00:19:21.491Z,99307.63
2022-09-30T00:24:25.428Z,99308.22
2022-09-30T00:29:28.079Z,99322.00
2022-09-30T00:34:30.806Z,99318.16
2022-09-30T00:39:35.607Z,99321.44
2022-09-30T00:44:51.632Z,99325.56
2022-09-30T00:49:54.564Z,99328.69
2022-09-30T00:55:02.398Z,99332.94
2022-09-30T01:00:06.026Z,99335.22
2022-09-30T01:05:11.814Z,99323.13
2022-09-30T01:10:15.874Z,99327.94
2022-09-30T01:15:19.535Z,99332.50
2022-09-30T01:20:47.260Z,99341.00
2022-09-30T01:26:11.714Z,99336.81
2022-09-30T01:31:32.597Z,99331.13
2022-09-30T01:36:46.762Z,99318.91
2022-09-30T01:41:55.370Z,99322.88
2022-09-30T01:47:06.656Z,99333.09
2022-09-30T01:52:14.800Z,99335.34
2022-09-30T01:57:25.457Z,99342.00
2022-09-30T02:02:33.710Z,99343.25
2022-09-30T02:07:40.285Z,99346.25
2022-09-30T02:12:56.438Z,99339.53
2022-09-30T02:18:05.667Z,99342.50
2022-09-30T02:23:14.738Z,99345.59
2022-09-30T02:28:23.935Z,99354.97
2022-09-30T02:33:34.570Z,99360.75
2022-09-30T02:38:43.233Z,99366.41
2022-09-30T02:43:46.191Z,99373.91
2022-09-30T02:49:00.402Z,99371.47
2022-09-30T02:54:08.271Z,99378.09
2022-09-30T02:59:10.916Z,99387.31
2022-09-30T03:04:19.758Z,99399.25
2022-09-30T03:09:26.157Z,99396.91
2022-09-30T03:14:47.476Z,99395.31
2022-09-30T03:20:07.034Z,99385.66
2022-09-30T03:25:21.142Z,99396.69
2022-09-30T03:30:26.910Z,99394.28
2022-09-30T03:35:38.570Z,99403.44
2022-09-30T03:40:50.735Z,99394.78
2022-09-30T03:45:59.503Z,99417.44
2022-09-30T03:51:05.104Z,99420.41
2022-09-30T03:56:07.863Z,99423.34
2022-09-30T04:01:19.170Z,99430.81
2022-09-30T04:06:25.052Z,99431.97
2022-09-30T04:11:27.659Z,99436.63
2022-09-30T04:16:31.036Z,99449.34
2022-09-30T04:21:34.931Z,99449.63
2022-09-30T04:26:37.579Z,99454.25
2022-09-30T04:31:40.181Z,99458.94
2022-09-30T04:36:44.191Z,99452.81
2022-09-30T04:41:46.776Z,99466.53
2022-09-30T04:46:50.397Z,99475.72
2022-09-30T04:51:54.302Z,99474.97
2022-09-30T04:56:57.066Z,99467.03
2022-09-30T05:01:59.736Z,99473.53
2022-09-30T05:07:08.668Z,99483.56
2022-09-30T05:12:11.284Z,99496.31
2022-09-30T05:17:13.862Z,99494.59
2022-09-30T05:22:17.906Z,99499.22
2022-09-30T05:27:20.772Z,99502.06
2022-09-30T05:32:24.630Z,99503.19
2022-09-30T05:37:28.583Z,99508.56
2022-09-30T05:42:36.886Z,99509.66
2022-09-30T05:47:39.570Z,99516.88
2022-09-30T05:52:43.487Z,99520.69
2022-09-30T05:57:49.584Z,99516.25
2022-09-30T06:02:53.128Z,99520.78
2022-09-30T06:08:01.226Z,99525.44
2022-09-30T06:13:04.649Z,99541.59
2022-09-30T06:18:07.470Z,99544.38
2022-09-30T06:23:11.398Z,99544.38
2022-09-30T06:28:14.057Z,99546.31
2022-09-30T06:33:17.394Z,99570.53
2022-09-30T06:38:22.702Z,99574.09
2022-09-30T06:43:25.318Z,99582.16
2022-09-30T06:48:37.830Z,99589.50
2022-09-30T06:53:43.207Z,99592.22
2022-09-30T06:58:46.218Z,99592.22
2022-09-30T07:03:54.517Z,99599.44
2022-09-30T07:08:58.672Z,99596.72
2022-09-30T07:14:01.386Z,99586.09
2022-09-30T07:19:05.180Z,99599.56
2022-09-30T07:24:09.594Z,99605.78
2022-09-30T07:29:13.696Z,99616.56
2022-09-30T07:34:16.360Z,99623.78
2022-09-30T07:39:20.311Z,99638.19
2022-09-30T07:44:25.309Z,99642.63
2022-09-30T07:49:28.137Z,99639.06
2022-09-30T07:54:38.749Z,99640.78
2022-09-30T07:59:44.063Z,99650.31
2022-09-30T08:04:47.169Z,99652.03
2022-09-30T08:09:51.226Z,99653.75
2022-09-30T08:14:53.862Z,99661.81
2022-09-30T08:19:56.560Z,99671.66
2022-09-30T08:25:00.529Z,99677.88
2022-09-30T08:30:04.688Z,99687.56
2022-09-30T08:35:08.435Z,99691.72
2022-09-30T08:40:20.707Z,99695.03
2022-09-30T08:45:36.809Z,99693.06
2022-09-30T08:50:49.837Z,99699.44
2022-09-30T08:55:57.980Z,99709.22
2022-09-30T09:01:07.580Z,99705.81
2022-09-30T09:06:20.133Z,99702.63
2022-09-30T09:11:42.747Z,99711.00
2022-09-30T09:16:59.178Z,99693.25
2022-09-30T09:22:03.664Z,99696.53
2022-09-30T09:27:21.478Z,99701.19
2022-09-30T09:32:29.367Z,99699.34
2022-09-30T09:38:03.491Z,99699.75
2022-09-30T09:43:19.134Z,99703.16
2022-09-30T09:48:21.742Z,99699.28
2022-09-30T09:53:43.595Z,99695.16
2022-09-30T09:59:07.430Z,99683.19
2022-09-30T10:04:17.703Z,99678.69
2022-09-30T10:09:26.320Z,99668.94
2022-09-30T10:14:30.348Z,99684.50
2022-09-30T10:19:35.582Z,99683.69
2022-09-30T10:24:39.906Z,99682.09
2022-09-30T10:29:48.715Z,99674.16
2022-09-30T10:34:57.609Z,99679.91
2022-09-30T10:40:03.594Z,99667.75
2022-09-30T10:45:19.233Z,99662.34
2022-09-30T10:50:25.092Z,99657.56
2022-09-30T10:55:32.369Z,99661.75
2022-09-30T11:00:37.499Z,99671.53
2022-09-30T11:05:42.736Z,99668.47
2022-09-30T11:10:50.835Z,99661.25
2022-09-30T11:16:04.017Z,99667.50
2022-09-30T11:21:13.826Z,99666.28
2022-09-30T11:26:28.853Z,99670.66
2022-09-30T11:31:39.191Z,99667.25
2022-09-30T11:36:54.217Z,99669.94
2022-09-30T11:42:05.444Z,99668.13
2022-09-30T11:47:32.635Z,99657.34
2022-09-30T11:52:46.205Z,99654.28
2022-09-30T11:57:56.490Z,99655.50
2022-09-30T12:03:10.280Z,99647.94
2022-09-30T12:08:17.713Z,99654.78
2022-09-30T12:13:25.252Z,99656.13
2022-09-30T12:18:35.013Z,99657.56
2022-09-30T12:23:45.838Z,99664.06
2022-09-30T12:29:13.192Z,99667.25
2022-09-30T12:34:33.652Z,99661.38
2022-09-30T12:40:03.364Z,99670.19
2022-09-30T12:45:57.305Z,99661.09
2022-09-30T12:51:02.261Z,99662.34
2022-09-30T12:56:08.074Z,99668.94
2022-09-30T13:01:16.257Z,99660.75
2022-09-30T13:06:22.508Z,99655.38
2022-09-30T13:11:44.205Z,99664.75
2022-09-30T13:17:01.962Z,99655.50
2022-09-30T13:22:40.524Z,99652.25
2022-09-30T13:27:46.276Z,99652.31
2022-09-30T13:33:05.784Z,99646.69
2022-09-30T13:38:17.770Z,99657.03
2022-09-30T13:43:27.759Z,99661.38
2022-09-30T13:48:34.343Z,99652.34
2022-09-30T13:53:40.443Z,99661.19
2022-09-30T13:59:09.593Z,99655.75
2022-09-30T14:04:41.592Z,99653.94
2022-09-30T14:10:14.369Z,99657.75
2022-09-30T14:15:47.164Z,99666.09
2022-09-30T14:21:06.392Z,99673.72
2022-09-30T14:26:27.670Z,99675.13
2022-09-30T14:31:32.257Z,99663.16
2022-09-30T14:36:35.121Z,99669.78
2022-09-30T14:41:41.087Z,99676.47
2022-09-30T14:46:47.963Z,99667.75
2022-09-30T14:51:51.096Z,99671.25
2022-09-30T14:56:54.470Z,99657.78
2022-09-30T15:02:01.084Z,99659.13
2022-09-30T15:07:07.116Z,99647.47
2022-09-30T15:12:16.581Z,99653.78
2022-09-30T15:17:21.987Z,99662.38
2022-09-30T15:22:27.393Z,99668.06
2022-09-30T15:27:32.035Z,99671.84
2022-09-30T15:32:37.443Z,99667.91
2022-09-30T15:37:40.120Z,99667.69
2022-09-30T15:42:49.422Z,99669.81
2022-09-30T15:47:58.288Z,99667.38
2022-09-30T15:53:05.059Z,99664.19
2022-09-30T15:58:32.742Z,99661.13
2022-09-30T16:03:37.429Z,99669.59
2022-09-30T16:08:44.635Z,99670.19
2022-09-30T16:13:48.940Z,99676.91
2022-09-30T16:18:55.986Z,99666.16
2022-09-30T16:23:58.807Z,99671.47
2022-09-30T16:29:08.203Z,99670.19
2022-09-30T16:34:20.271Z,99675.19
2022-09-30T16:39:22.945Z,99683.75
2022-09-30T16:44:25.706Z,99683.59
2022-09-30T16:49:29.986Z,99677.50
2022-09-30T16:54:32.694Z,99678.22
2022-09-30T16:59:35.360Z,99683.59
2022-09-30T17:04:39.661Z,99688.03
2022-09-30T17:09:45.732Z,99678.22
2022-09-30T17:14:49.073Z,99697.25
2022-09-30T17:19:53.180Z,99697.09
2022-09-30T17:24:55.756Z,99697.25
2022-09-30T17:29:58.574Z,99700.69
2022-09-30T17:35:02.778Z,99701.66
2022-09-30T17:40:25.869Z,99704.97
2022-09-30T17:45:28.778Z,99704.97
2022-09-30T17:50:32.841Z,99709.22
2022-09-30T17:55:35.868Z,99701.00
2022-09-30T18:00:38.443Z,99705.41
2022-09-30T18:05:45.407Z,99702.72
2022-09-30T18:10:48.141Z,99704.19
2022-09-30T18:15:50.978Z,99695.22
2022-09-30T18:20:55.102Z,99697.94
2022-09-30T18:25:57.832Z,99697.63
2022-09-30T18:31:05.704Z,99692.84
2022-09-30T18:36:09.945Z,99689.16
2022-09-30T18:41:13.337Z,99688.00
2022-09-30T18:46:16.051Z,99684.34
2022-09-30T18:51:20.071Z,99690.47
2022-09-30T18:56:23.611Z,99682.34
2022-09-30T19:01:27.119Z,99688.47
2022-09-30T19:06:31.295Z,99688.47
2022-09-30T19:11:35.271Z,99685.50
2022-09-30T19:16:39.073Z,99681.97
2022-09-30T19:21:44.855Z,99688.06
2022-09-30T19:26:47.944Z,99697.03
2022-09-30T19:31:50.479Z,99696.88
2022-09-30T19:36:57.835Z,99700.31
2022-09-30T19:42:04.066Z,99697.63
2022-09-30T19:47:06.896Z,99703.88
2022-09-30T19:52:19.452Z,99701.88
2022-09-30T19:57:24.003Z,99701.81
2022-09-30T20:02:26.634Z,99702.66
2022-09-30T20:07:30.586Z,99699.81
2022-09-30T20:12:33.263Z,99698.69
2022-09-30T20:17:35.815Z,99705.94
2022-09-30T20:22:39.744Z,99691.56
2022-09-30T20:27:49.797Z,99712.94
2022-09-30T20:32:54.885Z,99706.53
2022-09-30T20:37:58.743Z,99700.97
2022-09-30T20:43:03.037Z,99700.97
2022-09-30T20:48:05.680Z,99712.66
2022-09-30T20:53:12.637Z,99703.53
2022-09-30T20:58:15.181Z,99689.06
2022-09-30T21:03:17.732Z,99688.22
2022-09-30T21:08:21.656Z,99680.22
2022-09-30T21:13:24.226Z,99675.09
2022-09-30T21:18:27.540Z,99685.31
2022-09-30T21:23:33.661Z,99680.19
2022-09-30T21:28:36.983Z,99693.78
2022-09-30T21:33:39.538Z,99697.03
2022-09-30T21:38:43.425Z,99702.81
2022-09-30T21:43:46.988Z,99700.56
2022-09-30T21:48:49.625Z,99704.34
2022-09-30T21:53:53.538Z,99706.47
2022-09-30T21:58:56.074Z,99709.44
2022-09-30T22:03:58.787Z,99712.38
2022-09-30T22:09:02.877Z,99711.81
2022-09-30T22:14:05.428Z,99710.97
2022-09-30T22:19:08.927Z,99712.91
2022-09-30T22:24:12.823Z,99708.66
2022-09-30T22:29:16.600Z,99716.63
2022-09-30T22:34:37.268Z,99725.44
2022-09-30T22:39:41.186Z,99718.94
2022-09-30T22:44:43.901Z,99716.69
2022-09-30T22:49:46.891Z,99714.56
2022-09-30T22:54:50.764Z,99713.44
2022-09-30T22:59:53.858Z,99713.06
2022-09-30T23:04:56.399Z,99715.47
2022-09-30T23:10:00.609Z,99716.94
2022-09-30T23:15:03.379Z,99713.09
2022-09-30T23:20:06.937Z,99704.72
2022-09-30T23:25:11.307Z,99697.34
2022-09-30T23:30:14.072Z,99687.31
2022-09-30T23:35:16.660Z,99690.56
2022-09-30T23:40:20.571Z,99685.06
2022-09-30T23:45:23.151Z,99682.34
2022-09-30T23:50:25.811Z,99682.22
2022-09-30T23:55:29.901Z,99688.31
